sensor_id;sensor_type;location;lat;lon;timestamp;P1;durP1;ratioP1;P2;durP2;ratioP2
5774;SDS011;2913;51.120;6.772;2023-03-23T00:01:56;9.75;;;3.22;;
5774;SDS011;2913;51.120;6.772;2023-03-23T00:04:22;7.22;;;3.05;;
5774;SDS011;2913;51.120;6.772;2023-03-23T00:06:52;7.68;;;2.47;;
5774;SDS011;2913;51.120;6.772;2023-03-23T00:09:20;4.75;;;2.92;;
5774;SDS011;2913;51.120;6.772;2023-03-23T00:11:51;7.28;;;3.25;;
5774;SDS011;2913;51.120;6.772;2023-03-23T00:14:22;7.90;;;2.90;;
5774;SDS011;2913;51.120;6.772;2023-03-23T00:16:48;4.88;;;2.85;;
5774;SDS011;2913;51.120;6.772;2023-03-23T00:19:16;5.72;;;2.60;;
5774;SDS011;2913;51.120;6.772;2023-03-23T00:21:44;11.38;;;3.17;;
5774;SDS011;2913;51.120;6.772;2023-03-23T00:24:14;9.40;;;3.47;;
5774;SDS011;2913;51.120;6.772;2023-03-23T00:26:41;10.13;;;3.15;;
5774;SDS011;2913;51.120;6.772;2023-03-23T00:31:46;10.27;;;3.50;;
5774;SDS011;2913;51.120;6.772;2023-03-23T00:34:19;10.15;;;3.22;;
5774;SDS011;2913;51.120;6.772;2023-03-23T00:36:47;14.48;;;3.30;;
5774;SDS011;2913;51.120;6.772;2023-03-23T00:39:14;5.88;;;2.45;;
5774;SDS011;2913;51.120;6.772;2023-03-23T00:41:44;8.40;;;3.10;;
5774;SDS011;2913;51.120;6.772;2023-03-23T00:44:11;11.10;;;3.47;;
5774;SDS011;2913;51.120;6.772;2023-03-23T00:46:45;10.73;;;3.67;;
5774;SDS011;2913;51.120;6.772;2023-03-23T00:49:13;11.52;;;3.03;;
5774;SDS011;2913;51.120;6.772;2023-03-23T00:51:43;10.55;;;3.28;;
5774;SDS011;2913;51.120;6.772;2023-03-23T00:54:09;11.50;;;3.20;;
5774;SDS011;2913;51.120;6.772;2023-03-23T00:56:35;8.68;;;3.80;;
5774;SDS011;2913;51.120;6.772;2023-03-23T00:59:07;10.15;;;3.60;;
5774;SDS011;2913;51.120;6.772;2023-03-23T01:04:06;10.52;;;3.72;;
5774;SDS011;2913;51.120;6.772;2023-03-23T01:06:35;8.82;;;3.80;;
5774;SDS011;2913;51.120;6.772;2023-03-23T01:09:08;8.60;;;3.33;;
5774;SDS011;2913;51.120;6.772;2023-03-23T01:11:44;10.20;;;3.92;;
5774;SDS011;2913;51.120;6.772;2023-03-23T01:14:17;13.05;;;3.60;;
5774;SDS011;2913;51.120;6.772;2023-03-23T01:16:46;7.35;;;3.65;;
5774;SDS011;2913;51.120;6.772;2023-03-23T01:19:12;8.60;;;3.70;;
5774;SDS011;2913;51.120;6.772;2023-03-23T01:21:41;8.55;;;3.95;;
5774;SDS011;2913;51.120;6.772;2023-03-23T01:24:07;9.00;;;3.80;;
5774;SDS011;2913;51.120;6.772;2023-03-23T01:26:32;11.32;;;3.97;;
5774;SDS011;2913;51.120;6.772;2023-03-23T01:29:00;8.15;;;3.80;;
5774;SDS011;2913;51.120;6.772;2023-03-23T01:31:26;8.27;;;3.58;;
5774;SDS011;2913;51.120;6.772;2023-03-23T01:33:52;10.68;;;3.45;;
5774;SDS011;2913;51.120;6.772;2023-03-23T01:36:20;7.28;;;3.20;;
5774;SDS011;2913;51.120;6.772;2023-03-23T01:38:47;10.35;;;3.50;;
5774;SDS011;2913;51.120;6.772;2023-03-23T01:41:17;5.13;;;3.22;;
5774;SDS011;2913;51.120;6.772;2023-03-23T01:46:32;11.25;;;3.75;;
5774;SDS011;2913;51.120;6.772;2023-03-23T01:49:12;9.23;;;3.72;;
5774;SDS011;2913;51.120;6.772;2023-03-23T01:51:53;7.05;;;3.58;;
5774;SDS011;2913;51.120;6.772;2023-03-23T01:54:24;9.63;;;3.55;;
5774;SDS011;2913;51.120;6.772;2023-03-23T01:56:53;9.32;;;3.67;;
5774;SDS011;2913;51.120;6.772;2023-03-23T01:59:29;17.25;;;4.47;;
5774;SDS011;2913;51.120;6.772;2023-03-23T02:01:59;14.68;;;4.65;;
5774;SDS011;2913;51.120;6.772;2023-03-23T02:04:25;9.85;;;4.03;;
5774;SDS011;2913;51.120;6.772;2023-03-23T02:06:52;9.00;;;3.72;;
5774;SDS011;2913;51.120;6.772;2023-03-23T02:09:19;7.80;;;3.42;;
5774;SDS011;2913;51.120;6.772;2023-03-23T02:11:46;12.10;;;4.07;;
5774;SDS011;2913;51.120;6.772;2023-03-23T02:14:14;8.98;;;4.00;;
5774;SDS011;2913;51.120;6.772;2023-03-23T02:36:33;10.52;;;4.20;;
5774;SDS011;2913;51.120;6.772;2023-03-23T02:41:45;6.63;;;3.90;;
5774;SDS011;2913;51.120;6.772;2023-03-23T02:44:16;7.43;;;3.78;;
5774;SDS011;2913;51.120;6.772;2023-03-23T02:46:43;11.18;;;4.22;;
5774;SDS011;2913;51.120;6.772;2023-03-23T02:49:10;9.05;;;3.83;;
5774;SDS011;2913;51.120;6.772;2023-03-23T02:51:40;8.43;;;3.97;;
5774;SDS011;2913;51.120;6.772;2023-03-23T02:54:13;7.45;;;4.72;;
5774;SDS011;2913;51.120;6.772;2023-03-23T02:56:41;12.10;;;4.10;;
5774;SDS011;2913;51.120;6.772;2023-03-23T02:59:10;6.32;;;3.55;;
5774;SDS011;2913;51.120;6.772;2023-03-23T03:04:05;12.25;;;4.38;;
5774;SDS011;2913;51.120;6.772;2023-03-23T03:06:51;10.65;;;4.07;;
5774;SDS011;2913;51.120;6.772;2023-03-23T03:11:52;6.47;;;3.83;;
5774;SDS011;2913;51.120;6.772;2023-03-23T03:14:24;11.10;;;4.18;;
5774;SDS011;2913;51.120;6.772;2023-03-23T03:17:03;11.05;;;3.33;;
5774;SDS011;2913;51.120;6.772;2023-03-23T03:19:56;8.38;;;3.60;;
5774;SDS011;2913;51.120;6.772;2023-03-23T03:22:31;11.88;;;3.60;;
5774;SDS011;2913;51.120;6.772;2023-03-23T03:25:02;7.70;;;3.35;;
5774;SDS011;2913;51.120;6.772;2023-03-23T03:27:28;8.57;;;3.47;;
5774;SDS011;2913;51.120;6.772;2023-03-23T03:29:58;10.50;;;3.70;;
5774;SDS011;2913;51.120;6.772;2023-03-23T03:32:30;8.50;;;3.85;;
5774;SDS011;2913;51.120;6.772;2023-03-23T03:35:01;7.40;;;3.63;;
5774;SDS011;2913;51.120;6.772;2023-03-23T03:37:37;8.75;;;3.70;;
5774;SDS011;2913;51.120;6.772;2023-03-23T03:40:05;6.32;;;3.28;;
5774;SDS011;2913;51.120;6.772;2023-03-23T03:42:40;7.18;;;3.58;;
5774;SDS011;2913;51.120;6.772;2023-03-23T03:45:11;7.43;;;3.58;;
5774;SDS011;2913;51.120;6.772;2023-03-23T03:47:38;6.60;;;3.47;;
5774;SDS011;2913;51.120;6.772;2023-03-23T03:50:06;8.32;;;3.38;;
5774;SDS011;2913;51.120;6.772;2023-03-23T03:52:33;7.50;;;3.53;;
5774;SDS011;2913;51.120;6.772;2023-03-23T03:54:59;7.63;;;3.50;;
5774;SDS011;2913;51.120;6.772;2023-03-23T03:57:25;6.25;;;3.58;;
5774;SDS011;2913;51.120;6.772;2023-03-23T03:59:53;7.20;;;4.13;;
5774;SDS011;2913;51.120;6.772;2023-03-23T04:02:21;12.57;;;4.00;;
5774;SDS011;2913;51.120;6.772;2023-03-23T04:04:47;5.00;;;2.83;;
5774;SDS011;2913;51.120;6.772;2023-03-23T04:07:14;11.40;;;3.67;;
5774;SDS011;2913;51.120;6.772;2023-03-23T04:09:43;8.10;;;3.58;;
5774;SDS011;2913;51.120;6.772;2023-03-23T04:12:11;7.05;;;3.33;;
5774;SDS011;2913;51.120;6.772;2023-03-23T04:14:38;6.28;;;3.45;;
5774;SDS011;2913;51.120;6.772;2023-03-23T04:17:03;7.15;;;3.50;;
5774;SDS011;2913;51.120;6.772;2023-03-23T04:19:29;8.50;;;3.90;;
5774;SDS011;2913;51.120;6.772;2023-03-23T04:21:58;7.18;;;3.53;;
5774;SDS011;2913;51.120;6.772;2023-03-23T04:24:26;11.60;;;3.40;;
5774;SDS011;2913;51.120;6.772;2023-03-23T04:26:57;7.72;;;3.63;;
5774;SDS011;2913;51.120;6.772;2023-03-23T04:29:22;13.77;;;4.00;;
5774;SDS011;2913;51.120;6.772;2023-03-23T04:31:51;6.88;;;3.40;;
5774;SDS011;2913;51.120;6.772;2023-03-23T04:34:17;5.53;;;3.35;;
5774;SDS011;2913;51.120;6.772;2023-03-23T04:36:43;7.28;;;3.70;;
5774;SDS011;2913;51.120;6.772;2023-03-23T04:39:12;9.27;;;3.67;;
5774;SDS011;2913;51.120;6.772;2023-03-23T04:41:39;6.85;;;3.33;;
5774;SDS011;2913;51.120;6.772;2023-03-23T04:44:05;6.68;;;3.53;;
5774;SDS011;2913;51.120;6.772;2023-03-23T04:46:34;5.95;;;3.55;;
5774;SDS011;2913;51.120;6.772;2023-03-23T04:48:59;9.20;;;3.60;;
5774;SDS011;2913;51.120;6.772;2023-03-23T04:51:26;5.18;;;3.10;;
5774;SDS011;2913;51.120;6.772;2023-03-23T04:53:53;6.88;;;3.17;;
5774;SDS011;2913;51.120;6.772;2023-03-23T04:56:19;5.95;;;2.85;;
5774;SDS011;2913;51.120;6.772;2023-03-23T04:58:45;4.40;;;2.97;;
5774;SDS011;2913;51.120;6.772;2023-03-23T05:01:11;7.63;;;3.42;;
5774;SDS011;2913;51.120;6.772;2023-03-23T05:03:42;8.05;;;3.00;;
5774;SDS011;2913;51.120;6.772;2023-03-23T05:06:09;9.13;;;3.60;;
5774;SDS011;2913;51.120;6.772;2023-03-23T05:08:34;9.13;;;3.85;;
5774;SDS011;2913;51.120;6.772;2023-03-23T05:11:04;9.50;;;3.42;;
5774;SDS011;2913;51.120;6.772;2023-03-23T05:13:33;6.75;;;3.35;;
5774;SDS011;2913;51.120;6.772;2023-03-23T05:16:02;9.65;;;3.65;;
5774;SDS011;2913;51.120;6.772;2023-03-23T05:18:29;8.35;;;3.90;;
5774;SDS011;2913;51.120;6.772;2023-03-23T05:20:59;7.22;;;3.28;;
5774;SDS011;2913;51.120;6.772;2023-03-23T05:23:25;7.95;;;3.53;;
5774;SDS011;2913;51.120;6.772;2023-03-23T05:25:55;5.45;;;2.90;;
5774;SDS011;2913;51.120;6.772;2023-03-23T05:28:22;11.07;;;3.55;;
5774;SDS011;2913;51.120;6.772;2023-03-23T05:30:50;6.25;;;3.47;;
5774;SDS011;2913;51.120;6.772;2023-03-23T05:33:15;11.32;;;3.42;;
5774;SDS011;2913;51.120;6.772;2023-03-23T05:35:41;5.75;;;3.38;;
5774;SDS011;2913;51.120;6.772;2023-03-23T05:38:07;12.65;;;4.13;;
5774;SDS011;2913;51.120;6.772;2023-03-23T05:40:32;7.25;;;3.60;;
5774;SDS011;2913;51.120;6.772;2023-03-23T05:43:00;8.25;;;3.53;;
5774;SDS011;2913;51.120;6.772;2023-03-23T05:45:28;10.05;;;3.80;;
5774;SDS011;2913;51.120;6.772;2023-03-23T05:47:56;10.02;;;3.95;;
5774;SDS011;2913;51.120;6.772;2023-03-23T05:50:22;7.63;;;2.90;;
5774;SDS011;2913;51.120;6.772;2023-03-23T05:52:50;9.85;;;3.95;;
5774;SDS011;2913;51.120;6.772;2023-03-23T05:55:16;6.65;;;3.55;;
5774;SDS011;2913;51.120;6.772;2023-03-23T05:57:42;13.07;;;3.53;;
5774;SDS011;2913;51.120;6.772;2023-03-23T06:00:07;16.42;;;3.38;;
5774;SDS011;2913;51.120;6.772;2023-03-23T06:02:44;8.77;;;3.50;;
5774;SDS011;2913;51.120;6.772;2023-03-23T06:05:11;5.93;;;2.92;;
5774;SDS011;2913;51.120;6.772;2023-03-23T06:07:40;11.40;;;3.72;;
5774;SDS011;2913;51.120;6.772;2023-03-23T06:10:06;11.20;;;3.20;;
5774;SDS011;2913;51.120;6.772;2023-03-23T06:12:33;6.95;;;2.95;;
5774;SDS011;2913;51.120;6.772;2023-03-23T06:15:07;16.95;;;2.92;;
5774;SDS011;2913;51.120;6.772;2023-03-23T06:17:34;13.07;;;3.30;;
5774;SDS011;2913;51.120;6.772;2023-03-23T06:20:01;13.75;;;3.28;;
5774;SDS011;2913;51.120;6.772;2023-03-23T06:22:29;16.33;;;3.00;;
5774;SDS011;2913;51.120;6.772;2023-03-23T06:24:58;11.32;;;2.50;;
5774;SDS011;2913;51.120;6.772;2023-03-23T06:27:28;9.25;;;3.15;;
5774;SDS011;2913;51.120;6.772;2023-03-23T06:29:55;10.98;;;3.20;;
5774;SDS011;2913;51.120;6.772;2023-03-23T06:32:21;9.77;;;2.58;;
5774;SDS011;2913;51.120;6.772;2023-03-23T06:34:48;10.05;;;2.70;;
5774;SDS011;2913;51.120;6.772;2023-03-23T06:37:17;10.18;;;2.63;;
5774;SDS011;2913;51.120;6.772;2023-03-23T06:39:42;7.28;;;2.50;;
5774;SDS011;2913;51.120;6.772;2023-03-23T06:42:09;10.32;;;2.65;;
5774;SDS011;2913;51.120;6.772;2023-03-23T06:44:36;8.02;;;2.40;;
5774;SDS011;2913;51.120;6.772;2023-03-23T06:47:02;12.20;;;2.80;;
5774;SDS011;2913;51.120;6.772;2023-03-23T06:49:32;7.75;;;2.47;;
5774;SDS011;2913;51.120;6.772;2023-03-23T06:51:58;10.63;;;2.53;;
5774;SDS011;2913;51.120;6.772;2023-03-23T06:54:26;8.05;;;2.33;;
5774;SDS011;2913;51.120;6.772;2023-03-23T06:56:52;14.43;;;2.72;;
5774;SDS011;2913;51.120;6.772;2023-03-23T06:59:20;6.75;;;2.67;;
5774;SDS011;2913;51.120;6.772;2023-03-23T07:01:45;8.73;;;2.47;;
5774;SDS011;2913;51.120;6.772;2023-03-23T07:04:14;25.27;;;3.05;;
5774;SDS011;2913;51.120;6.772;2023-03-23T07:06:41;9.45;;;2.50;;
5774;SDS011;2913;51.120;6.772;2023-03-23T07:09:10;15.73;;;2.78;;
5774;SDS011;2913;51.120;6.772;2023-03-23T07:11:35;10.80;;;2.17;;
5774;SDS011;2913;51.120;6.772;2023-03-23T07:14:04;10.15;;;2.30;;
5774;SDS011;2913;51.120;6.772;2023-03-23T07:16:32;8.32;;;2.17;;
5774;SDS011;2913;51.120;6.772;2023-03-23T07:19:00;13.50;;;2.50;;
5774;SDS011;2913;51.120;6.772;2023-03-23T07:21:30;7.95;;;2.35;;
5774;SDS011;2913;51.120;6.772;2023-03-23T07:23:57;5.35;;;2.17;;
5774;SDS011;2913;51.120;6.772;2023-03-23T07:26:25;7.75;;;2.20;;
5774;SDS011;2913;51.120;6.772;2023-03-23T07:28:51;6.72;;;2.28;;
5774;SDS011;2913;51.120;6.772;2023-03-23T07:31:17;11.30;;;2.20;;
5774;SDS011;2913;51.120;6.772;2023-03-23T07:33:45;9.23;;;2.40;;
5774;SDS011;2913;51.120;6.772;2023-03-23T07:36:10;12.93;;;2.20;;
5774;SDS011;2913;51.120;6.772;2023-03-23T07:38:38;8.98;;;2.15;;
5774;SDS011;2913;51.120;6.772;2023-03-23T07:41:05;15.55;;;2.25;;
5774;SDS011;2913;51.120;6.772;2023-03-23T07:43:31;10.07;;;2.30;;
5774;SDS011;2913;51.120;6.772;2023-03-23T07:45:57;7.68;;;2.13;;
5774;SDS011;2913;51.120;6.772;2023-03-23T07:48:22;6.00;;;1.80;;
5774;SDS011;2913;51.120;6.772;2023-03-23T07:50:48;6.85;;;1.88;;
5774;SDS011;2913;51.120;6.772;2023-03-23T07:53:14;6.60;;;2.53;;
5774;SDS011;2913;51.120;6.772;2023-03-23T07:55:44;6.75;;;1.80;;
5774;SDS011;2913;51.120;6.772;2023-03-23T07:58:09;12.00;;;2.00;;
5774;SDS011;2913;51.120;6.772;2023-03-23T08:00:36;7.10;;;2.40;;
5774;SDS011;2913;51.120;6.772;2023-03-23T08:03:04;6.97;;;2.30;;
5774;SDS011;2913;51.120;6.772;2023-03-23T08:05:31;10.02;;;2.25;;
5774;SDS011;2913;51.120;6.772;2023-03-23T08:07:57;11.52;;;4.15;;
5774;SDS011;2913;51.120;6.772;2023-03-23T08:10:23;13.60;;;3.90;;
5774;SDS011;2913;51.120;6.772;2023-03-23T08:12:53;17.60;;;4.07;;
5774;SDS011;2913;51.120;6.772;2023-03-23T08:15:21;7.10;;;2.80;;
5774;SDS011;2913;51.120;6.772;2023-03-23T08:17:49;7.68;;;2.10;;
5774;SDS011;2913;51.120;6.772;2023-03-23T08:20:16;15.70;;;2.50;;
5774;SDS011;2913;51.120;6.772;2023-03-23T08:22:44;9.77;;;2.10;;
5774;SDS011;2913;51.120;6.772;2023-03-23T08:25:14;10.85;;;2.25;;
5774;SDS011;2913;51.120;6.772;2023-03-23T08:27:42;4.75;;;1.92;;
5774;SDS011;2913;51.120;6.772;2023-03-23T08:30:09;14.30;;;2.42;;
5774;SDS011;2913;51.120;6.772;2023-03-23T08:32:44;15.27;;;2.05;;
5774;SDS011;2913;51.120;6.772;2023-03-23T08:35:13;9.13;;;2.40;;
5774;SDS011;2913;51.120;6.772;2023-03-23T08:37:40;21.30;;;2.85;;
5774;SDS011;2913;51.120;6.772;2023-03-23T08:40:07;13.73;;;2.40;;
5774;SDS011;2913;51.120;6.772;2023-03-23T08:42:38;8.15;;;1.92;;
5774;SDS011;2913;51.120;6.772;2023-03-23T08:45:08;23.55;;;4.78;;
5774;SDS011;2913;51.120;6.772;2023-03-23T08:47:37;12.10;;;2.40;;
5774;SDS011;2913;51.120;6.772;2023-03-23T08:50:07;17.17;;;2.72;;
5774;SDS011;2913;51.120;6.772;2023-03-23T08:52:39;11.40;;;2.30;;
5774;SDS011;2913;51.120;6.772;2023-03-23T08:55:05;19.00;;;2.15;;
5774;SDS011;2913;51.120;6.772;2023-03-23T08:57:33;10.65;;;2.10;;
5774;SDS011;2913;51.120;6.772;2023-03-23T09:00:01;15.60;;;2.45;;
5774;SDS011;2913;51.120;6.772;2023-03-23T09:02:41;15.80;;;2.53;;
5774;SDS011;2913;51.120;6.772;2023-03-23T09:05:08;11.85;;;2.42;;
5774;SDS011;2913;51.120;6.772;2023-03-23T09:07:36;10.07;;;2.17;;
5774;SDS011;2913;51.120;6.772;2023-03-23T09:10:06;10.43;;;2.35;;
5774;SDS011;2913;51.120;6.772;2023-03-23T09:12:32;14.02;;;2.78;;
5774;SDS011;2913;51.120;6.772;2023-03-23T09:15:01;10.10;;;2.25;;
5774;SDS011;2913;51.120;6.772;2023-03-23T09:17:33;9.02;;;1.98;;
5774;SDS011;2913;51.120;6.772;2023-03-23T09:20:00;12.02;;;2.42;;
5774;SDS011;2913;51.120;6.772;2023-03-23T09:22:26;9.32;;;1.92;;
5774;SDS011;2913;51.120;6.772;2023-03-23T09:24:52;14.70;;;2.30;;
5774;SDS011;2913;51.120;6.772;2023-03-23T09:27:18;12.68;;;2.15;;
5774;SDS011;2913;51.120;6.772;2023-03-23T09:29:44;8.70;;;1.83;;
5774;SDS011;2913;51.120;6.772;2023-03-23T09:32:13;14.55;;;2.47;;
5774;SDS011;2913;51.120;6.772;2023-03-23T09:34:40;14.07;;;2.03;;
5774;SDS011;2913;51.120;6.772;2023-03-23T09:37:08;9.80;;;1.83;;
5774;SDS011;2913;51.120;6.772;2023-03-23T09:39:34;11.38;;;2.00;;
5774;SDS011;2913;51.120;6.772;2023-03-23T09:49:45;12.68;;;2.10;;
5774;SDS011;2913;51.120;6.772;2023-03-23T09:52:17;14.85;;;2.47;;
5774;SDS011;2913;51.120;6.772;2023-03-23T09:54:46;16.98;;;2.10;;
5774;SDS011;2913;51.120;6.772;2023-03-23T09:57:21;15.55;;;2.38;;
5774;SDS011;2913;51.120;6.772;2023-03-23T09:59:56;11.15;;;2.45;;
5774;SDS011;2913;51.120;6.772;2023-03-23T10:05:32;11.23;;;1.88;;
5774;SDS011;2913;51.120;6.772;2023-03-23T10:14:06;13.57;;;2.40;;
5774;SDS011;2913;51.120;6.772;2023-03-23T10:21:55;10.45;;;2.42;;
5774;SDS011;2913;51.120;6.772;2023-03-23T10:24:31;6.97;;;1.45;;
5774;SDS011;2913;51.120;6.772;2023-03-23T10:30:03;4.05;;;1.40;;
5774;SDS011;2913;51.120;6.772;2023-03-23T10:32:50;8.13;;;1.20;;
5774;SDS011;2913;51.120;6.772;2023-03-23T10:35:22;11.05;;;1.67;;
5774;SDS011;2913;51.120;6.772;2023-03-23T10:37:59;4.72;;;1.10;;
5774;SDS011;2913;51.120;6.772;2023-03-23T10:40:34;4.07;;;1.15;;
5774;SDS011;2913;51.120;6.772;2023-03-23T10:43:10;4.32;;;1.27;;
5774;SDS011;2913;51.120;6.772;2023-03-23T10:45:35;3.85;;;0.85;;
5774;SDS011;2913;51.120;6.772;2023-03-23T10:48:08;3.88;;;1.20;;
5774;SDS011;2913;51.120;6.772;2023-03-23T10:50:41;5.25;;;1.40;;
5774;SDS011;2913;51.120;6.772;2023-03-23T10:53:16;3.67;;;1.33;;
5774;SDS011;2913;51.120;6.772;2023-03-23T10:55:44;7.70;;;1.60;;
5774;SDS011;2913;51.120;6.772;2023-03-23T10:58:12;4.38;;;1.17;;
5774;SDS011;2913;51.120;6.772;2023-03-23T11:00:49;8.38;;;3.70;;
5774;SDS011;2913;51.120;6.772;2023-03-23T11:08:26;6.53;;;2.28;;
5774;SDS011;2913;51.120;6.772;2023-03-23T11:11:20;12.70;;;4.22;;
5774;SDS011;2913;51.120;6.772;2023-03-23T11:13:47;12.38;;;2.70;;
5774;SDS011;2913;51.120;6.772;2023-03-23T11:16:32;13.45;;;2.78;;
5774;SDS011;2913;51.120;6.772;2023-03-23T11:19:10;5.95;;;1.73;;
5774;SDS011;2913;51.120;6.772;2023-03-23T11:21:41;6.38;;;1.45;;
5774;SDS011;2913;51.120;6.772;2023-03-23T11:24:18;8.70;;;2.72;;
5774;SDS011;2913;51.120;6.772;2023-03-23T11:26:47;2.95;;;1.63;;
5774;SDS011;2913;51.120;6.772;2023-03-23T11:32:02;10.35;;;2.55;;
5774;SDS011;2913;51.120;6.772;2023-03-23T11:34:33;9.07;;;2.30;;
5774;SDS011;2913;51.120;6.772;2023-03-23T11:37:08;5.40;;;2.47;;
5774;SDS011;2913;51.120;6.772;2023-03-23T11:39:54;7.43;;;2.40;;
5774;SDS011;2913;51.120;6.772;2023-03-23T11:42:23;7.18;;;2.40;;
5774;SDS011;2913;51.120;6.772;2023-03-23T11:44:53;6.47;;;2.30;;
5774;SDS011;2913;51.120;6.772;2023-03-23T11:52:41;9.68;;;3.33;;
5774;SDS011;2913;51.120;6.772;2023-03-23T11:55:22;7.65;;;4.38;;
5774;SDS011;2913;51.120;6.772;2023-03-23T11:57:54;16.35;;;4.85;;
5774;SDS011;2913;51.120;6.772;2023-03-23T12:00:27;7.45;;;3.67;;
5774;SDS011;2913;51.120;6.772;2023-03-23T12:02:58;9.40;;;3.22;;
5774;SDS011;2913;51.120;6.772;2023-03-23T12:08:02;7.93;;;3.08;;
5774;SDS011;2913;51.120;6.772;2023-03-23T12:30:21;11.48;;;4.50;;
5774;SDS011;2913;51.120;6.772;2023-03-23T12:41:27;12.65;;;3.72;;
5774;SDS011;2913;51.120;6.772;2023-03-23T12:44:03;9.40;;;3.58;;
5774;SDS011;2913;51.120;6.772;2023-03-23T12:49:34;11.73;;;3.85;;
5774;SDS011;2913;51.120;6.772;2023-03-23T12:57:16;11.25;;;3.25;;
5774;SDS011;2913;51.120;6.772;2023-03-23T12:59:45;6.50;;;3.50;;
5774;SDS011;2913;51.120;6.772;2023-03-23T13:05:05;8.23;;;4.13;;
5774;SDS011;2913;51.120;6.772;2023-03-23T13:07:48;11.43;;;4.28;;
5774;SDS011;2913;51.120;6.772;2023-03-23T13:10:27;21.05;;;4.50;;
5774;SDS011;2913;51.120;6.772;2023-03-23T13:12:57;7.68;;;3.80;;
5774;SDS011;2913;51.120;6.772;2023-03-23T13:21:01;10.45;;;4.32;;
5774;SDS011;2913;51.120;6.772;2023-03-23T13:23:45;11.57;;;4.13;;
5774;SDS011;2913;51.120;6.772;2023-03-23T13:26:18;7.90;;;4.20;;
5774;SDS011;2913;51.120;6.772;2023-03-23T13:31:24;10.13;;;4.00;;
5774;SDS011;2913;51.120;6.772;2023-03-23T13:34:26;15.20;;;5.18;;
5774;SDS011;2913;51.120;6.772;2023-03-23T13:36:53;10.85;;;4.22;;
5774;SDS011;2913;51.120;6.772;2023-03-23T14:03:18;10.90;;;2.35;;
5774;SDS011;2913;51.120;6.772;2023-03-23T14:13:24;11.45;;;2.08;;
5774;SDS011;2913;51.120;6.772;2023-03-23T14:16:00;14.63;;;2.30;;
5774;SDS011;2913;51.120;6.772;2023-03-23T14:21:01;9.05;;;2.60;;
5774;SDS011;2913;51.120;6.772;2023-03-23T14:23:30;11.68;;;2.47;;
5774;SDS011;2913;51.120;6.772;2023-03-23T14:26:00;9.23;;;2.10;;
5774;SDS011;2913;51.120;6.772;2023-03-23T14:28:35;12.20;;;3.20;;
5774;SDS011;2913;51.120;6.772;2023-03-23T14:31:10;14.93;;;3.33;;
5774;SDS011;2913;51.120;6.772;2023-03-23T14:33:45;19.13;;;3.60;;
5774;SDS011;2913;51.120;6.772;2023-03-23T14:36:13;15.07;;;3.92;;
5774;SDS011;2913;51.120;6.772;2023-03-23T14:38:39;19.13;;;3.83;;
5774;SDS011;2913;51.120;6.772;2023-03-23T14:41:05;6.38;;;2.90;;
5774;SDS011;2913;51.120;6.772;2023-03-23T14:43:32;11.23;;;3.50;;
5774;SDS011;2913;51.120;6.772;2023-03-23T14:46:00;8.77;;;3.42;;
5774;SDS011;2913;51.120;6.772;2023-03-23T14:48:28;9.32;;;3.90;;
5774;SDS011;2913;51.120;6.772;2023-03-23T14:50:58;18.92;;;4.93;;
5774;SDS011;2913;51.120;6.772;2023-03-23T14:53:48;26.75;;;3.85;;
5774;SDS011;2913;51.120;6.772;2023-03-23T14:56:16;13.50;;;3.30;;
5774;SDS011;2913;51.120;6.772;2023-03-23T14:58:47;11.57;;;3.65;;
5774;SDS011;2913;51.120;6.772;2023-03-23T15:01:23;10.98;;;3.92;;
5774;SDS011;2913;51.120;6.772;2023-03-23T15:04:10;14.50;;;3.58;;
5774;SDS011;2913;51.120;6.772;2023-03-23T15:06:52;16.08;;;4.20;;
5774;SDS011;2913;51.120;6.772;2023-03-23T15:09:25;10.23;;;3.42;;
5774;SDS011;2913;51.120;6.772;2023-03-23T15:12:01;16.70;;;3.80;;
5774;SDS011;2913;51.120;6.772;2023-03-23T15:14:30;10.15;;;3.22;;
5774;SDS011;2913;51.120;6.772;2023-03-23T15:17:02;23.85;;;3.92;;
5774;SDS011;2913;51.120;6.772;2023-03-23T15:19:28;16.55;;;3.30;;
5774;SDS011;2913;51.120;6.772;2023-03-23T15:24:51;12.10;;;3.22;;
5774;SDS011;2913;51.120;6.772;2023-03-23T15:27:28;14.63;;;3.42;;
5774;SDS011;2913;51.120;6.772;2023-03-23T15:29:57;16.98;;;3.95;;
5774;SDS011;2913;51.120;6.772;2023-03-23T15:32:39;17.05;;;3.45;;
5774;SDS011;2913;51.120;6.772;2023-03-23T15:35:14;17.17;;;3.58;;
5774;SDS011;2913;51.120;6.772;2023-03-23T15:37:46;12.50;;;3.97;;
5774;SDS011;2913;51.120;6.772;2023-03-23T15:40:26;14.38;;;3.83;;
5774;SDS011;2913;51.120;6.772;2023-03-23T15:43:06;16.42;;;3.40;;
5774;SDS011;2913;51.120;6.772;2023-03-23T15:45:50;23.52;;;4.38;;
5774;SDS011;2913;51.120;6.772;2023-03-23T15:48:20;12.13;;;3.17;;
5774;SDS011;2913;51.120;6.772;2023-03-23T15:50:46;10.63;;;3.53;;
5774;SDS011;2913;51.120;6.772;2023-03-23T15:55:47;16.17;;;4.50;;
5774;SDS011;2913;51.120;6.772;2023-03-23T15:58:13;21.50;;;5.07;;
5774;SDS011;2913;51.120;6.772;2023-03-23T16:00:39;13.98;;;4.38;;
5774;SDS011;2913;51.120;6.772;2023-03-23T16:03:07;438.75;;;142.57;;
5774;SDS011;2913;51.120;6.772;2023-03-23T16:05:36;26.50;;;4.35;;
5774;SDS011;2913;51.120;6.772;2023-03-23T16:08:02;715.58;;;227.10;;
5774;SDS011;2913;51.120;6.772;2023-03-23T16:10:30;1039.35;;;334.52;;
5774;SDS011;2913;51.120;6.772;2023-03-23T16:12:58;1114.65;;;363.58;;
5774;SDS011;2913;51.120;6.772;2023-03-23T16:15:26;1301.45;;;419.42;;
5774;SDS011;2913;51.120;6.772;2023-03-23T16:17:54;1306.90;;;419.58;;
5774;SDS011;2913;51.120;6.772;2023-03-23T16:20:22;1275.70;;;407.95;;
5774;SDS011;2913;51.120;6.772;2023-03-23T16:22:51;1243.43;;;396.35;;
5774;SDS011;2913;51.120;6.772;2023-03-23T16:25:17;954.80;;;296.77;;
5774;SDS011;2913;51.120;6.772;2023-03-23T16:27:48;1198.40;;;381.25;;
5774;SDS011;2913;51.120;6.772;2023-03-23T16:30:20;1112.10;;;349.33;;
5774;SDS011;2913;51.120;6.772;2023-03-23T16:32:49;1078.13;;;341.98;;
5774;SDS011;2913;51.120;6.772;2023-03-23T16:35:15;1092.03;;;346.83;;
5774;SDS011;2913;51.120;6.772;2023-03-23T16:37:45;1015.83;;;326.92;;
5774;SDS011;2913;51.120;6.772;2023-03-23T16:40:15;409.55;;;129.57;;
5774;SDS011;2913;51.120;6.772;2023-03-23T16:42:42;839.72;;;265.63;;
5774;SDS011;2913;51.120;6.772;2023-03-23T16:45:08;1031.82;;;327.85;;
5774;SDS011;2913;51.120;6.772;2023-03-23T16:47:37;187.88;;;56.90;;
5774;SDS011;2913;51.120;6.772;2023-03-23T16:50:04;42.70;;;13.50;;
5774;SDS011;2913;51.120;6.772;2023-03-23T16:52:35;6.85;;;2.20;;
5774;SDS011;2913;51.120;6.772;2023-03-23T16:55:04;12.70;;;2.70;;
5774;SDS011;2913;51.120;6.772;2023-03-23T16:57:31;12.90;;;4.30;;
5774;SDS011;2913;51.120;6.772;2023-03-23T16:59:59;11.30;;;2.83;;
5774;SDS011;2913;51.120;6.772;2023-03-23T17:02:29;11.70;;;2.60;;
5774;SDS011;2913;51.120;6.772;2023-03-23T17:04:55;13.13;;;2.92;;
5774;SDS011;2913;51.120;6.772;2023-03-23T17:07:22;8.95;;;2.55;;
5774;SDS011;2913;51.120;6.772;2023-03-23T17:09:49;10.32;;;2.15;;
5774;SDS011;2913;51.120;6.772;2023-03-23T17:12:17;573.13;;;183.82;;
5774;SDS011;2913;51.120;6.772;2023-03-23T17:14:45;576.72;;;191.50;;
5774;SDS011;2913;51.120;6.772;2023-03-23T17:17:11;10.93;;;3.70;;
5774;SDS011;2913;51.120;6.772;2023-03-23T17:19:37;578.10;;;182.48;;
5774;SDS011;2913;51.120;6.772;2023-03-23T17:22:03;531.58;;;170.70;;
5774;SDS011;2913;51.120;6.772;2023-03-23T17:24:28;493.45;;;158.68;;
5774;SDS011;2913;51.120;6.772;2023-03-23T17:26:56;526.45;;;167.38;;
5774;SDS011;2913;51.120;6.772;2023-03-23T17:29:27;426.23;;;136.60;;
5774;SDS011;2913;51.120;6.772;2023-03-23T17:31:52;6.88;;;2.97;;
5774;SDS011;2913;51.120;6.772;2023-03-23T17:34:18;9.55;;;3.95;;
5774;SDS011;2913;51.120;6.772;2023-03-23T17:36:44;11.70;;;3.58;;
5774;SDS011;2913;51.120;6.772;2023-03-23T17:39:09;12.35;;;3.05;;
5774;SDS011;2913;51.120;6.772;2023-03-23T17:41:35;11.32;;;3.17;;
5774;SDS011;2913;51.120;6.772;2023-03-23T17:44:03;13.45;;;3.38;;
5774;SDS011;2913;51.120;6.772;2023-03-23T17:46:28;16.60;;;4.97;;
5774;SDS011;2913;51.120;6.772;2023-03-23T17:48:54;71.10;;;24.38;;
5774;SDS011;2913;51.120;6.772;2023-03-23T17:51:19;17.55;;;3.90;;
5774;SDS011;2913;51.120;6.772;2023-03-23T17:53:45;13.23;;;3.17;;
5774;SDS011;2913;51.120;6.772;2023-03-23T17:56:12;15.45;;;3.10;;
5774;SDS011;2913;51.120;6.772;2023-03-23T17:58:38;11.25;;;2.88;;
5774;SDS011;2913;51.120;6.772;2023-03-23T18:01:06;24.33;;;4.45;;
5774;SDS011;2913;51.120;6.772;2023-03-23T18:03:32;11.30;;;3.30;;